This is the latest recevied weather packets stored in our database for station/object VK3XEM-13. If no packets are shown the sender has not sent any weather packets the latest 10 day(s).
| Time | Temp. | Humidity | Pressure | Rain* | Wind** | Luminosity | Snow |
|---|---|---|---|---|---|---|---|
| 1778093234 | 5° C | 89% | 1017.5 hPa | 2.79 mm | - | 0 W/m² | - |
| 1778092335 | 5.56° C | 86% | 1017.1 hPa | 1.78 mm | - | 0 W/m² | - |
| 1778091435 | 5.56° C | 87% | 1016.1 hPa | 1.27 mm | - | 0 W/m² | - |
| 1778090534 | 5.56° C | 86% | 1016.1 hPa | 1.52 mm | - | 0 W/m² | - |
| 1778089634 | 5.56° C | 83% | 1016.5 hPa | 1.27 mm | - | 0 W/m² | - |
| 1778088735 | 6.11° C | 78% | 1016.1 hPa | 0.25 mm | - | 0 W/m² | - |
| 1778087834 | 6.67° C | 76% | 1016.1 hPa | 0.25 mm | - | 0 W/m² | - |
| 1778086935 | 6.67° C | 75% | 1016.5 hPa | 0 mm | - | 0 W/m² | - |
| 1778086035 | 6.67° C | 77% | 1016.5 hPa | 0 mm | - | 0 W/m² | - |
| 1778085135 | 6.67° C | 80% | 1016.1 hPa | 0 mm | - | 0 W/m² | - |
| 1778084234 | 6.67° C | 80% | 1016.1 hPa | 0 mm | - | 0 W/m² | - |
| 1778083334 | 6.67° C | 80% | 1016.1 hPa | 0.76 mm | - | 0 W/m² | - |
| 1778082434 | 6.67° C | 83% | 1016.1 hPa | 0.76 mm | - | 0 W/m² | - |
| 1778081534 | 6.67° C | 84% | 1016.1 hPa | 0.76 mm | - | 0 W/m² | - |
| 1778080634 | 7.22° C | 79% | 1016.5 hPa | 0.76 mm | - | 0 W/m² | - |
| 1778079734 | 7.78° C | 74% | 1016.1 hPa | 0 mm | - | 0 W/m² | - |
| 1778078834 | 7.78° C | 73% | 1016.1 hPa | 0 mm | - | 0 W/m² | - |
| 1778077934 | 7.78° C | 72% | 1016.1 hPa | 0 mm | - | 0 W/m² | - |
| 1778077034 | 7.78° C | 72% | 1016.1 hPa | 0 mm | - | 0 W/m² | - |
| 1778076134 | 7.78° C | 72% | 1016.1 hPa | 0 mm | - | 0 W/m² | - |
| 1778075236 | 8.33° C | 72% | 1016.5 hPa | 0 mm | - | 0 W/m² | - |
| 1778074335 | 8.89° C | 70% | 1016.1 hPa | 0 mm | - | 0 W/m² | - |
| 1778073436 | 9.44° C | 72% | 1016.1 hPa | 0 mm | - | 0 W/m² | - |
| 1778072534 | 9.44° C | 72% | 1016.1 hPa | 0 mm | - | 0 W/m² | - |
| 1778071634 | 9.44° C | 76% | 1016.1 hPa | 0 mm | - | 0 W/m² | - |
* Rain latest hour (hover to see other rain measurements)
** Current wind speed in m/s (hover to see current wind gust speed)